Huvudsida
METAR-TAF:

METAR-TAF

Flygplatser :

Basra International Airport

Basra, Irak

latitud: 30-32-56N, longitud: 47-39-45E, höjd: 1 m

Aktuellt väderrapport

Denna rapport gjordes för 27 minuter sedan, klockan 19:00 UTC
Stilla vind
Temperatur 16°C
Fuktighet 72%
Tryck 1016 hPa
Sikt 10 km eller mer
Inga moln under 1 500 m eller inga cumulonimbus

METAR: ORMM 281900Z 00000KT CAVOK 16/11 Q1016 NOSIG

Tid: 22:27 (19:27 UTC)

Väderprognos

Denna rapport gjordes för 3 timmar och 27 minuter sedan, klockan 16:00 UTC
Prognos gäller från 28 kl. 18 UTC till 29 kl. 18 UTC
Vind 5 kt från nordväst
Sikt: 8000 m

TAF: ORMM 281600Z 2818/2918 31005KT 8000 NSC

Aktuella väderrapporter och prognoser från 4000 flygplatser (METAR- och TAF-rapporter).

De tillgängliga stationerna syns som gula och röda prickar på kartan.

För musen över prickarna för att se namnen på stationerna.

Klicka sedan för att få väderrapporter och prognoser.

För att ändra kartan: Klicka på de gröna knapparna med ett svart kors på för att zooma in; den gröna knappen med ett streck på för att zooma ut; eller på de gröna pilarna för angränsande kartor.


METAR-TAF: